Time;durP1;ratioP1;P1;durP2;ratioP2;P2;SDS_P1;SDS_P2;PMS_P1;PMS_P2;Temp;Humidity;BMP_temperature;BMP_pressure;BME280_temperature;BME280_humidity;BME280_pressure;Samples;Min_cycle;Max_cycle;Signal;HPM_P1;HPM_P2
2023/01/14 00:02:08;;;;;;;;;;;;;;;;;;5085220;28;19932;-80
2023/01/14 00:04:40;;;;;;;;;;;;;;;;;;5079411;28;19924;-80
2023/01/14 00:07:08;;;;;;;;;;;;;;;;;;5090512;28;19924;-80
2023/01/14 00:09:35;;;;;;;;;;;;;;;;;;5083936;28;19939;-79
2023/01/14 00:12:08;;;;;;;;;;;;;;;;;;5088712;28;19924;-80
2023/01/14 00:14:35;;;;;;;;;;;;;;;;;;5077669;28;20619;-79
2023/01/14 00:17:08;;;;;;;;;;;;;;;;;;5085511;28;19924;-80
2023/01/14 00:19:35;;;;;;;;;;;;;;;;;;5088268;28;19924;-80
2023/01/14 00:22:08;;;;;;;;;;;;;;;;;;5086531;28;19931;-80
2023/01/14 00:24:35;;;;;;;;;;;;;;;;;;5087333;28;20409;-80
2023/01/14 00:27:08;;;;;;;;;;;;;;;;;;5085466;28;19931;-80
2023/01/14 00:29:35;;;;;;;;;;;;;;;;;;5077712;28;20304;-80
2023/01/14 00:32:03;;;;;;;;;;;;;;;;;;5088595;28;19932;-80
2023/01/14 00:34:31;;;;;;;;;;;;;;;;;;5097729;28;19931;-79
2023/01/14 00:37:03;;;;;;;;;;;;;;;;;;5092107;28;19928;-80
2023/01/14 00:39:31;;;;;;;;;;;;;;;;;;5086508;28;19931;-79
2023/01/14 00:41:58;;;;;;;;;;;;;;;;;;5084011;28;19931;-80
2023/01/14 00:44:26;;;;;;;;;;;;;;;;;;5088225;28;19928;-80
2023/01/14 00:46:58;;;;;;;;;;;;;;;;;;5082693;28;19924;-80
2023/01/14 00:49:31;;;;;;;;;;;;;;;;;;5085353;28;19924;-79
2023/01/14 00:52:03;;;;;;;;;;;;;;;;;;5081207;28;20714;-80
2023/01/14 00:54:37;;;;;;;;;;;;;;;;;;5082584;28;19951;-79
2023/01/14 00:57:11;;;;;;;;;;;;;;;;;;5088071;28;20296;-80
2023/01/14 00:59:39;;;;;;;;;;;;;;;;;;5077961;28;19924;-79
2023/01/14 01:02:11;;;;;;;;;;;;;;;;;;5073193;28;19924;-79
2023/01/14 01:04:39;;;;;;;;;;;;;;;;;;5082478;28;19928;-80
2023/01/14 01:07:07;;;;;;;;;;;;;;;;;;5091262;28;19948;-80
2023/01/14 01:09:34;;;;;;;;;;;;;;;;;;5079843;28;19924;-80
2023/01/14 01:12:02;;;;;;;;;;;;;;;;;;5082804;28;19928;-80
2023/01/14 01:14:29;;;;;;;;;;;;;;;;;;5086011;28;20416;-80
2023/01/14 01:17:02;;;;;;;;;;;;;;;;;;5079748;28;19928;-81
2023/01/14 01:19:29;;;;;;;;;;;;;;;;;;5086025;28;20611;-79
2023/01/14 01:22:02;;;;;;;;;;;;;;;;;;5087900;28;19931;-81
2023/01/14 01:24:34;;;;;;;;;;;;;;;;;;5089270;28;19931;-79
2023/01/14 01:27:07;;;;;;;;;;;;;;;;;;5089761;28;19939;-79
2023/01/14 01:29:40;;;;;;;;;;;;;;;;;;5090275;28;19924;-80
2023/01/14 01:32:07;;;;;;;;;;;;;;;;;;5093581;28;20006;-79
2023/01/14 01:34:40;;;;;;;;;;;;;;;;;;5086789;28;19931;-79
2023/01/14 01:37:12;;;;;;;;;;;;;;;;;;5091410;28;19932;-80
2023/01/14 01:39:40;;;;;;;;;;;;;;;;;;5075126;28;19931;-79
2023/01/14 01:42:07;;;;;;;;;;;;;;;;;;5091274;28;20300;-80
2023/01/14 01:44:35;;;;;;;;;;;;;;;;;;5091505;28;20384;-80
2023/01/14 01:47:07;;;;;;;;;;;;;;;;;;5091374;28;19935;-80
2023/01/14 01:49:35;;;;;;;;;;;;;;;;;;5092221;28;20389;-79
2023/01/14 01:52:07;;;;;;;;;;;;;;;;;;5080791;28;19929;-80
2023/01/14 01:54:40;;;;;;;;;;;;;;;;;;5085565;28;19936;-80
2023/01/14 01:57:12;;;;;;;;;;;;;;;;;;5079790;28;19928;-80
2023/01/14 01:59:45;;;;;;;;;;;;;;;;;;5091958;28;19931;-80
2023/01/14 02:02:17;;;;;;;;;;;;;;;;;;5092620;28;19929;-80
2023/01/14 02:04:45;;;;;;;;;;;;;;;;;;5088411;28;19924;-80
2023/01/14 02:07:12;;;;;;;;;;;;;;;;;;5086219;28;19932;-80
2023/01/14 02:09:40;;;;;;;;;;;;;;;;;;5087816;28;20307;-79
2023/01/14 02:12:12;;;;;;;;;;;;;;;;;;5085708;28;19924;-79
2023/01/14 02:14:40;;;;;;;;;;;;;;;;;;5094897;28;19924;-80
2023/01/14 02:17:08;;;;;;;;;;;;;;;;;;5083968;28;19932;-80
2023/01/14 02:19:36;;;;;;;;;;;;;;;;;;5088115;28;19924;-80
2023/01/14 02:22:04;;;;;;;;;;;;;;;;;;5101407;28;19939;-80
2023/01/14 02:24:32;;;;;;;;;;;;;;;;;;5095252;28;19924;-80
2023/01/14 02:27:04;;;;;;;;;;;;;;;;;;5083328;28;19932;-80
2023/01/14 02:29:32;;;;;;;;;;;;;;;;;;5097519;28;19928;-81
2023/01/14 02:32:01;;;;;;;;;;;;;;;;;;5083495;28;19931;-79
2023/01/14 02:34:29;;;;;;;;;;;;;;;;;;5091433;28;19924;-80
2023/01/14 02:37:02;;;;;;;;;;;;;;;;;;5103167;28;19931;-80
2023/01/14 02:39:32;;;;;;;;;;;;;;;;;;5090127;28;20399;-81
2023/01/14 02:44:51;;;;;;;;;;;;;;;;;;5083756;28;20399;-79
2023/01/14 02:47:19;;;;;;;;;;;;;;;;;;5088005;28;19931;-80
2023/01/14 02:49:47;;;;;;;;;;;;;;;;;;5094656;28;19924;-81
2023/01/14 02:52:15;;;;;;;;;;;;;;;;;;5086998;28;20376;-80
2023/01/14 02:54:43;;;;;;;;;;;;;;;;;;5096396;28;20387;-79
2023/01/14 02:57:11;;;;;;;;;;;;;;;;;;5091961;28;19924;-80
2023/01/14 02:59:39;;;;;;;;;;;;;;;;;;5090933;28;19924;-80
2023/01/14 03:02:07;;;;;;;;;;;;;;;;;;5078893;28;19924;-80
2023/01/14 03:04:35;;;;;;;;;;;;;;;;;;5077188;28;20305;-80
2023/01/14 03:07:07;;;;;;;;;;;;;;;;;;5088513;28;19931;-80
2023/01/14 03:09:37;;;;;;;;;;;;;;;;;;5080193;28;19936;-79
2023/01/14 03:12:04;;;;;;;;;;;;;;;;;;5093338;28;19928;-81
2023/01/14 03:14:38;;;;;;;;;;;;;;;;;;5088459;28;19931;-80
2023/01/14 03:17:12;;;;;;;;;;;;;;;;;;5084174;28;19925;-80
2023/01/14 03:19:44;;;;;;;;;;;;;;;;;;5090694;28;20301;-79
2023/01/14 03:22:12;;;;;;;;;;;;;;;;;;5092181;28;19924;-80
2023/01/14 03:24:40;;;;;;;;;;;;;;;;;;5087303;28;19924;-80
2023/01/14 03:27:08;;;;;;;;;;;;;;;;;;5081809;28;19924;-80
2023/01/14 03:29:40;;;;;;;;;;;;;;;;;;5094608;28;19925;-80
2023/01/14 03:32:13;;;;;;;;;;;;;;;;;;5090479;28;20316;-80
2023/01/14 03:34:45;;;;;;;;;;;;;;;;;;5073609;28;20454;-80
2023/01/14 03:37:13;;;;;;;;;;;;;;;;;;5094188;28;19924;-80
2023/01/14 03:39:40;;;;;;;;;;;;;;;;;;5082699;28;19931;-79
2023/01/14 03:44:57;;;;;;;;;;;;;;;;;;5085640;28;19928;-80
2023/01/14 03:47:29;;;;;;;;;;;;;;;;;;5083127;28;19929;-80
2023/01/14 03:49:57;;;;;;;;;;;;;;;;;;5086377;28;19947;-80
2023/01/14 03:52:24;;;;;;;;;;;;;;;;;;5089955;28;19931;-80
2023/01/14 03:54:56;;;;;;;;;;;;;;;;;;5093014;28;20650;-79
2023/01/14 03:57:29;;;;;;;;;;;;;;;;;;5085381;28;19928;-80
2023/01/14 03:59:56;;;;;;;;;;;;;;;;;;5072639;28;19924;-79
2023/01/14 04:02:24;;;;;;;;;;;;;;;;;;5088574;28;19931;-80
2023/01/14 04:04:51;;;;;;;;;;;;;;;;;;5083159;28;19924;-79
2023/01/14 04:07:19;;;;;;;;;;;;;;;;;;5073993;28;19932;-80
2023/01/14 04:09:46;;;;;;;;;;;;;;;;;;5095389;28;20411;-80
2023/01/14 04:12:14;;;;;;;;;;;;;;;;;;5076584;28;19939;-80
2023/01/14 04:17:27;;;;;;;;;;;;;;;;;;5080738;28;19932;-80
2023/01/14 04:19:54;;;;;;;;;;;;;;;;;;5082917;28;19931;-80
2023/01/14 04:22:27;;;;;;;;;;;;;;;;;;5091959;28;19951;-79
2023/01/14 04:24:59;;;;;;;;;;;;;;;;;;5084580;28;20397;-80
2023/01/14 04:27:32;;;;;;;;;;;;;;;;;;5082847;28;19931;-79
2023/01/14 04:30:04;;;;;;;;;;;;;;;;;;5089971;28;19932;-80
2023/01/14 04:32:37;;;;;;;;;;;;;;;;;;5084735;28;20451;-80
2023/01/14 04:35:04;;;;;;;;;;;;;;;;;;5092080;28;20277;-80
2023/01/14 04:37:37;;;;;;;;;;;;;;;;;;5088515;28;19931;-80
2023/01/14 04:40:04;;;;;;;;;;;;;;;;;;5087486;28;19924;-80
2023/01/14 04:42:37;;;;;;;;;;;;;;;;;;5078899;28;19931;-79
2023/01/14 04:45:04;;;;;;;;;;;;;;;;;;5087771;28;20368;-79
2023/01/14 04:47:32;;;;;;;;;;;;;;;;;;5086534;28;19931;-80
2023/01/14 04:50:30;;;;;;;;;;;;;;;;;;5082557;28;19932;-80
2023/01/14 04:52:47;;;;;;;;;;;;;;;;;;5080201;28;19931;-80
2023/01/14 04:55:15;;;;;;;;;;;;;;;;;;5080890;28;19931;-80
2023/01/14 04:57:47;;;;;;;;;;;;;;;;;;5088274;28;19924;-79
2023/01/14 05:00:15;;;;;;;;;;;;;;;;;;5084510;28;19931;-80
2023/01/14 05:02:42;;;;;;;;;;;;;;;;;;5083479;28;20308;-80
2023/01/14 05:05:10;;;;;;;;;;;;;;;;;;5078220;28;19935;-79
2023/01/14 05:07:42;;;;;;;;;;;;;;;;;;5087686;28;19925;-79
2023/01/14 05:10:15;;;;;;;;;;;;;;;;;;5076609;28;20300;-80
2023/01/14 05:12:56;;;;;;;;;;;;;;;;;;5077938;28;19929;-80
2023/01/14 05:15:24;;;;;;;;;;;;;;;;;;5086563;28;19928;-79
2023/01/14 05:17:56;;;;;;;;;;;;;;;;;;5082358;28;19932;-80
2023/01/14 05:20:24;;;;;;;;;;;;;;;;;;5088248;28;19931;-79
2023/01/14 05:22:56;;;;;;;;;;;;;;;;;;5092335;28;20288;-81
2023/01/14 05:25:24;;;;;;;;;;;;;;;;;;5086885;28;19935;-80
2023/01/14 05:27:57;;;;;;;;;;;;;;;;;;5083457;28;19925;-79
2023/01/14 05:30:24;;;;;;;;;;;;;;;;;;5077041;28;19924;-80
2023/01/14 05:32:56;;;;;;;;;;;;;;;;;;5082780;28;19931;-80
2023/01/14 05:35:29;;;;;;;;;;;;;;;;;;5085166;28;19947;-80
2023/01/14 05:38:02;;;;;;;;;;;;;;;;;;5075088;28;19925;-80
2023/01/14 05:40:29;;;;;;;;;;;;;;;;;;5088567;28;19924;-81
2023/01/14 05:45:52;;;;;;;;;;;;;;;;;;5077107;28;20296;-80
2023/01/14 05:48:25;;;;;;;;;;;;;;;;;;5081754;28;19928;-79
2023/01/14 05:50:57;;;;;;;;;;;;;;;;;;5088816;28;20312;-80
2023/01/14 05:53:30;;;;;;;;;;;;;;;;;;5096479;28;20285;-81
2023/01/14 05:56:02;;;;;;;;;;;;;;;;;;5085706;28;19924;-80
2023/01/14 05:58:29;;;;;;;;;;;;;;;;;;5080570;28;20304;-79
2023/01/14 06:06:37;;;;;;;;;;;;;;;;;;5083644;28;20327;-81
2023/01/14 06:09:10;;;;;;;;;;;;;;;;;;5085711;28;19924;-80
2023/01/14 06:11:39;;;;;;;;;;;;;;;;;;5080114;28;20395;-81
2023/01/14 06:14:07;;;;;;;;;;;;;;;;;;5099377;28;19928;-82
2023/01/14 06:16:39;;;;;;;;;;;;;;;;;;5102730;27;19927;-80
2023/01/14 06:19:11;;;;;;;;;;;;;;;;;;5092971;28;19931;-80
2023/01/14 06:21:44;;;;;;;;;;;;;;;;;;5090895;28;19935;-80
2023/01/14 06:24:11;;;;;;;;;;;;;;;;;;5087818;28;20404;-80
2023/01/14 06:26:39;;;;;;;;;;;;;;;;;;5088517;28;19931;-80
2023/01/14 06:29:11;;;;;;;;;;;;;;;;;;5091543;28;19927;-80
2023/01/14 06:31:44;;;;;;;;;;;;;;;;;;5096318;28;19930;-80
2023/01/14 06:34:11;;;;;;;;;;;;;;;;;;5087121;28;19924;-80
2023/01/14 06:36:39;;;;;;;;;;;;;;;;;;5097760;28;19995;-80
2023/01/14 06:39:06;;;;;;;;;;;;;;;;;;5088402;28;20298;-80
2023/01/14 06:41:39;;;;;;;;;;;;;;;;;;5085268;28;19987;-80
2023/01/14 06:44:11;;;;;;;;;;;;;;;;;;5086981;28;19928;-80
2023/01/14 06:46:39;;;;;;;;;;;;;;;;;;5088661;28;20389;-80
2023/01/14 06:49:06;;;;;;;;;;;;;;;;;;5089898;28;19947;-80
2023/01/14 06:51:40;;;;;;;;;;;;;;;;;;5086702;28;19935;-80
2023/01/14 06:54:13;;;;;;;;;;;;;;;;;;5092476;28;19992;-80
2023/01/14 06:56:41;;;;;;;;;;;;;;;;;;5083650;28;19939;-80
2023/01/14 06:59:13;;;;;;;;;;;;;;;;;;5089883;28;19931;-80
2023/01/14 07:01:41;;;;;;;;;;;;;;;;;;5095326;28;19924;-79
2023/01/14 07:04:13;;;;;;;;;;;;;;;;;;5091053;28;19924;-80
2023/01/14 07:06:46;;;;;;;;;;;;;;;;;;5087096;28;19924;-80
2023/01/14 07:09:14;;;;;;;;;;;;;;;;;;5092068;28;19924;-80
2023/01/14 07:11:42;;;;;;;;;;;;;;;;;;5083917;28;19935;-81
2023/01/14 07:14:10;;;;;;;;;;;;;;;;;;5085826;28;19928;-80
2023/01/14 07:16:37;;;;;;;;;;;;;;;;;;5085928;28;19935;-80
2023/01/14 07:19:05;;;;;;;;;;;;;;;;;;5084514;28;19928;-80
2023/01/14 07:21:32;;;;;;;;;;;;;;;;;;5085978;28;19935;-81
2023/01/14 07:24:05;;;;;;;;;;;;;;;;;;5086568;28;19924;-79
2023/01/14 07:26:32;;;;;;;;;;;;;;;;;;5078091;28;20554;-80
2023/01/14 07:29:00;;;;;;;;;;;;;;;;;;5082307;28;20408;-80
2023/01/14 07:31:27;;;;;;;;;;;;;;;;;;5086202;28;19928;-80
2023/01/14 07:34:00;;;;;;;;;;;;;;;;;;5089547;28;20289;-80
2023/01/14 07:36:27;;;;;;;;;;;;;;;;;;5087976;28;19936;-81
2023/01/14 07:39:00;;;;;;;;;;;;;;;;;;5081497;28;19928;-80
2023/01/14 07:41:33;;;;;;;;;;;;;;;;;;5084792;28;19932;-80
2023/01/14 07:44:05;;;;;;;;;;;;;;;;;;5085119;28;19931;-79
2023/01/14 07:46:38;;;;;;;;;;;;;;;;;;5092742;28;19931;-79
2023/01/14 07:49:05;;;;;;;;;;;;;;;;;;5092654;28;20280;-79
2023/01/14 07:51:34;;;;;;;;;;;;;;;;;;5090583;28;20341;-79
2023/01/14 07:54:07;;;;;;;;;;;;;;;;;;5084702;28;20395;-80
2023/01/14 07:56:39;;;;;;;;;;;;;;;;;;5082806;28;19947;-80
2023/01/14 07:59:07;;;;;;;;;;;;;;;;;;5088301;28;20296;-80
2023/01/14 08:01:34;;;;;;;;;;;;;;;;;;5080709;28;19931;-80
2023/01/14 08:04:02;;;;;;;;;;;;;;;;;;5086777;28;19931;-80
2023/01/14 08:06:34;;;;;;;;;;;;;;;;;;5088269;28;19924;-80
2023/01/14 08:09:02;;;;;;;;;;;;;;;;;;5086078;28;19924;-81
2023/01/14 08:11:30;;;;;;;;;;;;;;;;;;5091612;28;19924;-80
2023/01/14 08:13:57;;;;;;;;;;;;;;;;;;5080487;28;19924;-81
2023/01/14 08:16:24;;;;;;;;;;;;;;;;;;5095279;28;20375;-81
2023/01/14 08:18:52;;;;;;;;;;;;;;;;;;5092907;28;19925;-80
2023/01/14 08:21:24;;;;;;;;;;;;;;;;;;5081198;28;19947;-80
2023/01/14 08:23:52;;;;;;;;;;;;;;;;;;5085977;28;19928;-80
2023/01/14 08:26:19;;;;;;;;;;;;;;;;;;5087076;28;19928;-81
2023/01/14 08:28:47;;;;;;;;;;;;;;;;;;5086432;28;19932;-80
2023/01/14 08:31:19;;;;;;;;;;;;;;;;;;5083772;28;19935;-80
2023/01/14 08:33:47;;;;;;;;;;;;;;;;;;5078737;28;19924;-80
2023/01/14 08:36:19;;;;;;;;;;;;;;;;;;5081626;28;19935;-81
2023/01/14 08:38:48;;;;;;;;;;;;;;;;;;5083302;28;19950;-82
2023/01/14 08:41:21;;;;;;;;;;;;;;;;;;5084560;28;20288;-80
2023/01/14 08:43:54;;;;;;;;;;;;;;;;;;5086530;28;19932;-80
2023/01/14 08:46:26;;;;;;;;;;;;;;;;;;5084010;28;19924;-81
2023/01/14 08:48:59;;;;;;;;;;;;;;;;;;5087975;28;20013;-81
2023/01/14 08:51:32;;;;;;;;;;;;;;;;;;5088675;28;19924;-80
2023/01/14 08:54:04;;;;;;;;;;;;;;;;;;5078102;28;19955;-81
2023/01/14 08:56:31;;;;;;;;;;;;;;;;;;5085913;28;19967;-88
2023/01/14 08:59:05;;;;;;;;;;;;;;;;;;5089306;28;19963;-83
2023/01/14 09:01:38;;;;;;;;;;;;;;;;;;5079289;28;19924;-82
2023/01/14 09:04:11;;;;;;;;;;;;;;;;;;5084472;28;19924;-82
2023/01/14 09:17:04;;;;;;;;;;;;;;;;;;5090358;28;19931;-81
2023/01/14 09:17:56;;;;;;;;;;;;;;;;;;5078818;28;19928;-84
2023/01/14 09:20:29;;;;;;;;;;;;;;;;;;5086016;28;19931;-82
2023/01/14 09:23:01;;;;;;;;;;;;;;;;;;5080838;28;19928;-83
2023/01/14 09:25:29;;;;;;;;;;;;;;;;;;5085419;28;20404;-82
2023/01/14 09:28:01;;;;;;;;;;;;;;;;;;5081457;28;20767;-84
2023/01/14 09:30:34;;;;;;;;;;;;;;;;;;5077058;28;19927;-82
2023/01/14 09:33:07;;;;;;;;;;;;;;;;;;5096667;28;20361;-85
2023/01/14 09:35:34;;;;;;;;;;;;;;;;;;5078278;28;20403;-82
2023/01/14 09:38:02;;;;;;;;;;;;;;;;;;5079956;28;20373;-80
2023/01/14 09:40:35;;;;;;;;;;;;;;;;;;5079523;28;20296;-83
2023/01/14 09:43:02;;;;;;;;;;;;;;;;;;5082669;28;19924;-85
2023/01/14 09:45:35;;;;;;;;;;;;;;;;;;5081496;28;20410;-85
2023/01/14 09:48:02;;;;;;;;;;;;;;;;;;5083308;28;20292;-83
2023/01/14 09:50:35;;;;;;;;;;;;;;;;;;5078553;28;19935;-84
2023/01/14 09:53:02;;;;;;;;;;;;;;;;;;5081928;28;19928;-85
2023/01/14 09:55:30;;;;;;;;;;;;;;;;;;5090611;28;19932;-82
2023/01/14 09:58:03;;;;;;;;;;;;;;;;;;5083320;28;19935;-84
2023/01/14 10:00:35;;;;;;;;;;;;;;;;;;5087684;28;19943;-84
2023/01/14 10:03:08;;;;;;;;;;;;;;;;;;5085066;28;19932;-83
2023/01/14 10:05:40;;;;;;;;;;;;;;;;;;5093751;28;19924;-84
2023/01/14 10:08:13;;;;;;;;;;;;;;;;;;5086870;28;19928;-84
2023/01/14 10:10:45;;;;;;;;;;;;;;;;;;5091025;28;19931;-86
2023/01/14 10:13:18;;;;;;;;;;;;;;;;;;5087851;28;20319;-86
2023/01/14 10:15:50;;;;;;;;;;;;;;;;;;5085384;28;20336;-86
2023/01/14 10:18:18;;;;;;;;;;;;;;;;;;5084324;28;19924;-86
2023/01/14 10:20:45;;;;;;;;;;;;;;;;;;5083919;28;19939;-86
2023/01/14 10:23:18;;;;;;;;;;;;;;;;;;5102141;27;19932;-87
2023/01/14 10:25:45;;;;;;;;;;;;;;;;;;5083064;28;19929;-84
2023/01/14 10:28:18;;;;;;;;;;;;;;;;;;5081275;28;19935;-86
2023/01/14 10:30:51;;;;;;;;;;;;;;;;;;5085128;28;20705;-84
2023/01/14 10:33:18;;;;;;;;;;;;;;;;;;5087169;28;19931;-83
2023/01/14 10:35:46;;;;;;;;;;;;;;;;;;5087767;28;20408;-83
2023/01/14 10:38:18;;;;;;;;;;;;;;;;;;5089221;28;20394;-86
2023/01/14 10:40:51;;;;;;;;;;;;;;;;;;5079428;28;19939;-84
2023/01/14 10:43:23;;;;;;;;;;;;;;;;;;5085521;28;19928;-85
2023/01/14 10:45:56;;;;;;;;;;;;;;;;;;5085662;28;19931;-84
2023/01/14 10:48:28;;;;;;;;;;;;;;;;;;5087080;28;19932;-84
2023/01/14 10:50:56;;;;;;;;;;;;;;;;;;5087548;28;19951;-86
2023/01/14 10:53:23;;;;;;;;;;;;;;;;;;5080650;28;19924;-84
2023/01/14 10:55:51;;;;;;;;;;;;;;;;;;5086566;28;19946;-86
2023/01/14 10:58:23;;;;;;;;;;;;;;;;;;5085460;28;19928;-86
2023/01/14 11:00:56;;;;;;;;;;;;;;;;;;5082814;28;19924;-86
2023/01/14 11:03:28;;;;;;;;;;;;;;;;;;5082671;28;19931;-86
2023/01/14 11:06:01;;;;;;;;;;;;;;;;;;5082563;28;19924;-87
2023/01/14 11:08:33;;;;;;;;;;;;;;;;;;5087575;28;20304;-84
2023/01/14 11:11:01;;;;;;;;;;;;;;;;;;5087204;28;19932;-84
2023/01/14 11:13:36;;;;;;;;;;;;;;;;;;5089357;28;19939;-83
2023/01/14 11:16:03;;;;;;;;;;;;;;;;;;5080977;28;19935;-85
2023/01/14 11:18:36;;;;;;;;;;;;;;;;;;5082411;28;19935;-81
2023/01/14 11:21:03;;;;;;;;;;;;;;;;;;5085204;28;19925;-83
2023/01/14 11:23:36;;;;;;;;;;;;;;;;;;5084005;28;20297;-83
2023/01/14 11:26:04;;;;;;;;;;;;;;;;;;5074786;28;19928;-82
2023/01/14 11:28:36;;;;;;;;;;;;;;;;;;5082960;28;19924;-81
2023/01/14 11:31:09;;;;;;;;;;;;;;;;;;5087333;28;19932;-81
2023/01/14 11:33:36;;;;;;;;;;;;;;;;;;5080739;28;20698;-84
2023/01/14 11:36:09;;;;;;;;;;;;;;;;;;5082553;28;19925;-86
2023/01/14 11:38:41;;;;;;;;;;;;;;;;;;5082369;28;20410;-82
2023/01/14 11:43:54;;;;;;;;;;;;;;;;;;5086826;28;20283;-86
2023/01/14 11:46:26;;;;;;;;;;;;;;;;;;5082585;28;19928;-84
2023/01/14 11:48:54;;;;;;;;;;;;;;;;;;5086242;28;19927;-83
2023/01/14 11:51:27;;;;;;;;;;;;;;;;;;5087543;28;19936;-84
2023/01/14 11:53:56;;;;;;;;;;;;;;;;;;5081774;28;19940;-86
2023/01/14 11:56:24;;;;;;;;;;;;;;;;;;5082827;28;20393;-83
2023/01/14 11:58:56;;;;;;;;;;;;;;;;;;5082842;28;19924;-84
2023/01/14 12:01:29;;;;;;;;;;;;;;;;;;5084302;28;20296;-83
2023/01/14 12:03:56;;;;;;;;;;;;;;;;;;5082936;28;19931;-83
2023/01/14 12:06:24;;;;;;;;;;;;;;;;;;5079597;28;19925;-83
2023/01/14 12:08:56;;;;;;;;;;;;;;;;;;5080320;28;19928;-84
2023/01/14 12:11:24;;;;;;;;;;;;;;;;;;5091493;28;19928;-83
2023/01/14 12:16:52;;;;;;;;;;;;;;;;;;5077467;28;19931;-83
2023/01/14 12:19:24;;;;;;;;;;;;;;;;;;5076891;28;19932;-83
2023/01/14 12:21:57;;;;;;;;;;;;;;;;;;5074121;28;19935;-83
2023/01/14 12:24:29;;;;;;;;;;;;;;;;;;5083947;28;19924;-83
2023/01/14 12:26:57;;;;;;;;;;;;;;;;;;5079791;28;19924;-84
2023/01/14 12:29:24;;;;;;;;;;;;;;;;;;5079003;28;19929;-82
2023/01/14 12:31:53;;;;;;;;;;;;;;;;;;5084233;28;19925;-85
2023/01/14 12:34:26;;;;;;;;;;;;;;;;;;5082320;28;19931;-86
2023/01/14 12:36:53;;;;;;;;;;;;;;;;;;5083279;28;19929;-84
2023/01/14 12:47:52;;;;;;;;;;;;;;;;;;5081570;28;20396;-84
2023/01/14 12:50:19;;;;;;;;;;;;;;;;;;5084225;28;19924;-84
2023/01/14 12:52:47;;;;;;;;;;;;;;;;;;5084246;28;19932;-83
2023/01/14 12:55:19;;;;;;;;;;;;;;;;;;5081251;28;19924;-86
2023/01/14 12:57:52;;;;;;;;;;;;;;;;;;5081882;28;20002;-87
2023/01/14 13:00:24;;;;;;;;;;;;;;;;;;5088210;28;20299;-87
2023/01/14 13:02:57;;;;;;;;;;;;;;;;;;5080800;28;19939;-88
2023/01/14 13:05:24;;;;;;;;;;;;;;;;;;5082750;28;20405;-86
2023/01/14 13:07:52;;;;;;;;;;;;;;;;;;5078731;28;19935;-86
2023/01/14 13:10:19;;;;;;;;;;;;;;;;;;5094148;27;20388;-86
2023/01/14 13:12:52;;;;;;;;;;;;;;;;;;5074688;28;19957;-86
2023/01/14 13:15:19;;;;;;;;;;;;;;;;;;5082253;28;19928;-88
2023/01/14 13:17:52;;;;;;;;;;;;;;;;;;5077031;28;19951;-87
2023/01/14 13:20:24;;;;;;;;;;;;;;;;;;5077182;28;20381;-86
2023/01/14 13:22:57;;;;;;;;;;;;;;;;;;5082816;28;19932;-86
2023/01/14 13:25:24;;;;;;;;;;;;;;;;;;5086833;28;20376;-84
2023/01/14 13:27:57;;;;;;;;;;;;;;;;;;5085125;28;20003;-87
2023/01/14 13:30:24;;;;;;;;;;;;;;;;;;5084241;28;19935;-87
2023/01/14 13:32:52;;;;;;;;;;;;;;;;;;5085520;28;19990;-85
2023/01/14 13:35:19;;;;;;;;;;;;;;;;;;5080975;28;19928;-86
2023/01/14 13:37:47;;;;;;;;;;;;;;;;;;5077804;28;19925;-88
2023/01/14 13:40:15;;;;;;;;;;;;;;;;;;5082218;28;19935;-86
2023/01/14 13:42:42;;;;;;;;;;;;;;;;;;5099311;28;19943;-86
2023/01/14 13:45:15;;;;;;;;;;;;;;;;;;5084232;28;20393;-86
2023/01/14 13:47:42;;;;;;;;;;;;;;;;;;5077919;28;19959;-87
2023/01/14 13:50:10;;;;;;;;;;;;;;;;;;5084704;28;19931;-86
2023/01/14 13:52:42;;;;;;;;;;;;;;;;;;5078397;28;19928;-81
2023/01/14 13:55:15;;;;;;;;;;;;;;;;;;5079839;28;19931;-86
2023/01/14 13:57:49;;;;;;;;;;;;;;;;;;5077445;28;20281;-85
2023/01/14 14:00:23;;;;;;;;;;;;;;;;;;5086864;28;19943;-85
2023/01/14 14:02:56;;;;;;;;;;;;;;;;;;5084945;28;19931;-81
2023/01/14 14:05:28;;;;;;;;;;;;;;;;;;5083867;28;19932;-85
2023/01/14 14:08:01;;;;;;;;;;;;;;;;;;5081125;28;19924;-88
2023/01/14 14:10:28;;;;;;;;;;;;;;;;;;5084369;28;19928;-86
2023/01/14 14:15:46;;;;;;;;;;;;;;;;;;5078497;28;19928;-82
2023/01/14 14:18:14;;;;;;;;;;;;;;;;;;5081662;28;19924;-85
2023/01/14 14:20:41;;;;;;;;;;;;;;;;;;5078598;28;19924;-85
2023/01/14 14:23:09;;;;;;;;;;;;;;;;;;5078318;28;19935;-84
2023/01/14 14:25:36;;;;;;;;;;;;;;;;;;5078678;28;19929;-86
2023/01/14 14:28:04;;;;;;;;;;;;;;;;;;5085663;28;19932;-83
2023/01/14 14:30:36;;;;;;;;;;;;;;;;;;5076534;28;19932;-80
2023/01/14 14:33:09;;;;;;;;;;;;;;;;;;5082534;28;19932;-83
2023/01/14 14:35:36;;;;;;;;;;;;;;;;;;5034493;28;19928;-84
2023/01/14 14:38:09;;;;;;;;;;;;;;;;;;5076633;28;19924;-82
2023/01/14 14:40:43;;;;;;;;;;;;;;;;;;5065005;28;19940;-85
2023/01/14 14:43:10;;;;;;;;;;;;;;;;;;5067187;28;20544;-86
2023/01/14 14:45:49;;;;;;;;;;;;;;;;;;5060948;28;19924;-83
2023/01/14 14:48:16;;;;;;;;;;;;;;;;;;5064423;28;19928;-82
2023/01/14 14:50:49;;;;;;;;;;;;;;;;;;5066650;28;19932;-86
2023/01/14 14:53:21;;;;;;;;;;;;;;;;;;5068341;28;19932;-82
2023/01/14 14:55:49;;;;;;;;;;;;;;;;;;5059525;28;19932;-82
2023/01/14 14:58:21;;;;;;;;;;;;;;;;;;5070192;28;19955;-83
2023/01/14 15:00:49;;;;;;;;;;;;;;;;;;5067819;28;20323;-81
2023/01/14 15:03:21;;;;;;;;;;;;;;;;;;5071293;28;19939;-83
2023/01/14 15:05:54;;;;;;;;;;;;;;;;;;5067940;28;20756;-83
2023/01/14 15:08:29;;;;;;;;;;;;;;;;;;5064175;28;19955;-83
2023/01/14 15:10:57;;;;;;;;;;;;;;;;;;5067047;28;20320;-83
2023/01/14 15:13:29;;;;;;;;;;;;;;;;;;5064015;28;19932;-81
2023/01/14 15:15:57;;;;;;;;;;;;;;;;;;5066547;28;20273;-81
2023/01/14 15:18:31;;;;;;;;;;;;;;;;;;5068939;28;20284;-85
2023/01/14 15:20:59;;;;;;;;;;;;;;;;;;5060570;28;19924;-85
2023/01/14 15:23:31;;;;;;;;;;;;;;;;;;5061291;28;20417;-82
2023/01/14 15:26:04;;;;;;;;;;;;;;;;;;5064785;28;20460;-82
2023/01/14 15:28:32;;;;;;;;;;;;;;;;;;5065626;28;19936;-82
2023/01/14 15:31:04;;;;;;;;;;;;;;;;;;5070041;28;19932;-83
2023/01/14 15:33:32;;;;;;;;;;;;;;;;;;5067783;28;19932;-82
2023/01/14 15:36:05;;;;;;;;;;;;;;;;;;5064358;28;19932;-82
2023/01/14 15:38:38;;;;;;;;;;;;;;;;;;5064228;28;19939;-82
2023/01/14 15:41:08;;;;;;;;;;;;;;;;;;5068105;28;19932;-80
2023/01/14 15:43:38;;;;;;;;;;;;;;;;;;5058959;28;19932;-81
2023/01/14 15:46:07;;;;;;;;;;;;;;;;;;5052400;28;19932;-81
2023/01/14 15:48:35;;;;;;;;;;;;;;;;;;5060467;28;19932;-82
2023/01/14 15:51:03;;;;;;;;;;;;;;;;;;5065849;28;19939;-82
2023/01/14 15:53:30;;;;;;;;;;;;;;;;;;5066902;28;19932;-83
2023/01/14 15:55:58;;;;;;;;;;;;;;;;;;5076508;28;20512;-81
2023/01/14 15:58:28;;;;;;;;;;;;;;;;;;5072314;28;19936;-82
2023/01/14 16:00:55;;;;;;;;;;;;;;;;;;5068335;28;20420;-82
2023/01/14 16:03:23;;;;;;;;;;;;;;;;;;5066433;28;20388;-82
2023/01/14 16:05:55;;;;;;;;;;;;;;;;;;5066978;28;21062;-81
2023/01/14 16:08:30;;;;;;;;;;;;;;;;;;5065266;28;19939;-83
2023/01/14 16:10:58;;;;;;;;;;;;;;;;;;5068608;28;19939;-82
2023/01/14 16:13:25;;;;;;;;;;;;;;;;;;5072286;28;20573;-85
2023/01/14 16:15:58;;;;;;;;;;;;;;;;;;5065980;28;19932;-81
2023/01/14 16:18:27;;;;;;;;;;;;;;;;;;5063662;28;19939;-84
2023/01/14 16:20:56;;;;;;;;;;;;;;;;;;5061369;28;19939;-82
2023/01/14 16:23:29;;;;;;;;;;;;;;;;;;5066775;28;19943;-83
2023/01/14 16:25:58;;;;;;;;;;;;;;;;;;5064741;28;20508;-82
2023/01/14 16:28:31;;;;;;;;;;;;;;;;;;5065120;28;19939;-82
2023/01/14 16:30:58;;;;;;;;;;;;;;;;;;5062487;28;19936;-82
2023/01/14 16:33:26;;;;;;;;;;;;;;;;;;5071272;28;19943;-82
2023/01/14 16:35:58;;;;;;;;;;;;;;;;;;5048008;28;19932;-83
2023/01/14 16:38:26;;;;;;;;;;;;;;;;;;5069749;28;19939;-82
2023/01/14 16:40:53;;;;;;;;;;;;;;;;;;5069610;28;19932;-83
2023/01/14 16:43:22;;;;;;;;;;;;;;;;;;5069456;28;20302;-81
2023/01/14 16:45:49;;;;;;;;;;;;;;;;;;5070128;28;19955;-82
2023/01/14 16:48:17;;;;;;;;;;;;;;;;;;5069236;28;19932;-82
2023/01/14 16:50:44;;;;;;;;;;;;;;;;;;5070594;28;19932;-85
2023/01/14 16:53:17;;;;;;;;;;;;;;;;;;5067429;28;19939;-82
2023/01/14 16:55:44;;;;;;;;;;;;;;;;;;5070421;28;19932;-81
2023/01/14 16:58:12;;;;;;;;;;;;;;;;;;5071653;28;19932;-85
2023/01/14 17:00:44;;;;;;;;;;;;;;;;;;5070454;28;19924;-84
2023/01/14 17:03:12;;;;;;;;;;;;;;;;;;5072315;28;19935;-85
2023/01/14 17:05:39;;;;;;;;;;;;;;;;;;5067702;28;19943;-84
2023/01/14 17:08:07;;;;;;;;;;;;;;;;;;5068181;28;19939;-84
2023/01/14 17:10:41;;;;;;;;;;;;;;;;;;5068338;28;19947;-83
2023/01/14 17:13:17;;;;;;;;;;;;;;;;;;5070887;28;19924;-82
2023/01/14 17:15:54;;;;;;;;;;;;;;;;;;5070686;28;19939;-83
2023/01/14 17:18:27;;;;;;;;;;;;;;;;;;5063491;28;19932;-82
2023/01/14 17:20:55;;;;;;;;;;;;;;;;;;5067411;28;19932;-85
2023/01/14 17:23:28;;;;;;;;;;;;;;;;;;5069587;28;19935;-81
2023/01/14 17:25:56;;;;;;;;;;;;;;;;;;5077137;28;19932;-82
2023/01/14 17:28:28;;;;;;;;;;;;;;;;;;5067063;28;19938;-82
2023/01/14 17:30:57;;;;;;;;;;;;;;;;;;5063156;28;19935;-85
2023/01/14 17:33:26;;;;;;;;;;;;;;;;;;5060190;28;20388;-86
2023/01/14 17:35:59;;;;;;;;;;;;;;;;;;5051974;28;19932;-83
2023/01/14 17:38:26;;;;;;;;;;;;;;;;;;5063469;28;19932;-83
2023/01/14 17:40:54;;;;;;;;;;;;;;;;;;5061760;28;19940;-81
2023/01/14 17:43:22;;;;;;;;;;;;;;;;;;5066085;28;19939;-83
2023/01/14 17:45:49;;;;;;;;;;;;;;;;;;5065210;28;19928;-81
2023/01/14 17:48:17;;;;;;;;;;;;;;;;;;5065204;28;20050;-83